createdAt,value
2018-10-16T00:00:17.893Z,8.24
2018-10-16T00:01:17.900Z,8.27
2018-10-16T00:02:17.895Z,8.22
2018-10-16T00:03:18.485Z,8.21
2018-10-16T00:04:17.938Z,8.22
2018-10-16T00:05:18.088Z,8.15
2018-10-16T00:06:17.983Z,8.13
2018-10-16T00:07:17.959Z,8.23
2018-10-16T00:08:18.098Z,8.2
2018-10-16T00:09:17.863Z,8.21
2018-10-16T00:10:18.101Z,8.2
2018-10-16T00:11:17.901Z,8.17
2018-10-16T00:12:18.098Z,8.15
2018-10-16T00:13:18.322Z,8.14
2018-10-16T00:14:17.788Z,8.2
2018-10-16T00:15:18.038Z,8.14
2018-10-16T00:16:18.028Z,8.14
2018-10-16T00:17:17.877Z,8.1
2018-10-16T00:18:18.291Z,8.12
2018-10-16T00:19:18.280Z,8.1
2018-10-16T00:20:17.904Z,8.1
2018-10-16T00:21:18.081Z,8.2
2018-10-16T00:22:17.964Z,8.16
2018-10-16T00:23:18.067Z,8.19
2018-10-16T00:24:18.084Z,8.2
2018-10-16T00:25:17.972Z,8.18
2018-10-16T00:26:17.942Z,8.18
2018-10-16T00:27:17.949Z,8.15
2018-10-16T00:28:18.039Z,8.15
2018-10-16T00:29:17.868Z,8.15
2018-10-16T00:30:17.935Z,8.17
2018-10-16T00:31:17.974Z,8.07
2018-10-16T00:32:17.885Z,8.2
2018-10-16T00:33:18.266Z,8.21
2018-10-16T00:34:18.030Z,8.2
2018-10-16T00:35:18.020Z,8.18
2018-10-16T00:36:17.846Z,8.22
2018-10-16T00:37:17.993Z,8.16
2018-10-16T00:38:18.070Z,8.17
2018-10-16T00:39:17.927Z,8.13
2018-10-16T00:40:18.239Z,8.12
2018-10-16T00:41:18.074Z,8.17
2018-10-16T00:42:18.289Z,8.16
2018-10-16T00:43:18.057Z,8.18
2018-10-16T00:44:17.945Z,8.14
2018-10-16T00:45:18.065Z,8.15
2018-10-16T00:46:17.863Z,8.14
2018-10-16T00:47:18.133Z,8.16
2018-10-16T00:48:17.964Z,8.12
2018-10-16T00:49:17.864Z,8.14
2018-10-16T00:50:18.512Z,8.12
2018-10-16T00:51:17.903Z,8.11
2018-10-16T00:52:17.902Z,8.13
2018-10-16T00:53:18.317Z,8.13
2018-10-16T00:54:18.082Z,8.13
2018-10-16T00:55:17.840Z,8.12
2018-10-16T00:56:17.945Z,8.12
2018-10-16T00:57:17.812Z,8.11
2018-10-16T00:58:17.969Z,8.1
2018-10-16T00:59:17.810Z,8.1
2018-10-16T01:00:17.769Z,8.08
2018-10-16T01:01:17.826Z,8.05
2018-10-16T01:02:17.882Z,8.07
2018-10-16T01:03:17.881Z,8.07
2018-10-16T01:04:17.902Z,8.07
2018-10-16T01:05:17.927Z,8.04
2018-10-16T01:06:17.918Z,8.05
2018-10-16T01:07:17.865Z,8.04
2018-10-16T01:08:18.030Z,8.04
2018-10-16T01:09:17.836Z,8.04
2018-10-16T01:10:17.872Z,8.04
2018-10-16T01:11:18.104Z,8.02
2018-10-16T01:12:17.905Z,8.02
2018-10-16T01:13:18.592Z,8.01
2018-10-16T01:14:17.860Z,7.99
2018-10-16T01:15:17.898Z,7.98
2018-10-16T01:16:17.970Z,7.98
2018-10-16T01:17:17.828Z,7.97
2018-10-16T01:18:17.824Z,7.98
2018-10-16T01:19:17.853Z,7.98
2018-10-16T01:20:17.779Z,7.98
2018-10-16T01:21:18.021Z,7.97
2018-10-16T01:22:17.986Z,7.95
2018-10-16T01:23:17.779Z,7.94
2018-10-16T01:24:17.824Z,7.94
2018-10-16T01:25:17.841Z,7.93
2018-10-16T01:26:17.872Z,7.91
2018-10-16T01:27:18.177Z,7.94
2018-10-16T01:28:17.930Z,7.9
2018-10-16T01:29:17.815Z,7.93
2018-10-16T01:30:17.883Z,7.91
2018-10-16T01:31:18.047Z,7.91
2018-10-16T01:32:18.119Z,7.92
2018-10-16T01:33:18.262Z,7.94
2018-10-16T01:34:17.819Z,7.92
2018-10-16T01:35:17.899Z,7.93
2018-10-16T01:36:17.810Z,7.91
2018-10-16T01:37:17.960Z,7.9
2018-10-16T01:38:17.994Z,7.88
2018-10-16T01:39:17.770Z,7.89
2018-10-16T01:40:17.855Z,7.87
2018-10-16T01:41:17.727Z,7.9
2018-10-16T01:42:17.875Z,7.85
2018-10-16T01:43:17.863Z,7.87
2018-10-16T01:44:17.939Z,7.85
2018-10-16T01:45:17.876Z,7.9
2018-10-16T01:46:17.884Z,7.84
2018-10-16T01:47:17.837Z,7.86
2018-10-16T01:48:17.751Z,7.9
2018-10-16T01:49:17.782Z,7.91
2018-10-16T01:50:17.854Z,7.88
2018-10-16T01:51:17.780Z,7.88
2018-10-16T01:52:17.895Z,7.89
2018-10-16T01:53:17.776Z,7.89
2018-10-16T01:54:17.795Z,7.91
2018-10-16T01:55:17.942Z,7.85
2018-10-16T01:56:17.869Z,7.88
2018-10-16T01:57:17.794Z,7.9
2018-10-16T01:58:18.110Z,7.88
2018-10-16T01:59:17.758Z,7.88
2018-10-16T02:00:17.744Z,7.89
2018-10-16T02:01:17.945Z,7.89
2018-10-16T02:02:17.723Z,7.87
2018-10-16T02:03:17.737Z,7.86
2018-10-16T02:04:17.793Z,7.83
2018-10-16T02:05:17.738Z,7.83
2018-10-16T02:06:17.800Z,7.83
2018-10-16T02:07:17.823Z,7.82
2018-10-16T02:08:17.755Z,7.79
2018-10-16T02:09:18.386Z,7.8
2018-10-16T02:10:17.867Z,7.79
2018-10-16T02:11:17.821Z,7.78
2018-10-16T02:12:17.719Z,7.79
2018-10-16T02:13:17.830Z,7.77
2018-10-16T02:14:17.781Z,7.76
2018-10-16T02:15:17.733Z,7.78
2018-10-16T02:16:17.955Z,7.79
2018-10-16T02:17:18.089Z,7.73
2018-10-16T02:18:18.165Z,7.77
2018-10-16T02:19:17.733Z,7.75
2018-10-16T02:20:17.754Z,7.75
2018-10-16T02:21:17.785Z,7.74
2018-10-16T02:22:17.933Z,7.73
2018-10-16T02:23:17.837Z,7.69
2018-10-16T02:24:17.858Z,7.67
2018-10-16T02:25:17.976Z,7.7
2018-10-16T02:26:17.825Z,7.7
2018-10-16T02:27:17.695Z,7.68
2018-10-16T02:28:17.734Z,7.67
2018-10-16T02:29:18.045Z,7.69
2018-10-16T02:30:18.042Z,7.67
2018-10-16T02:31:17.705Z,7.68
2018-10-16T02:32:17.687Z,7.64
2018-10-16T02:33:17.671Z,7.69
2018-10-16T02:34:17.711Z,7.66
2018-10-16T02:35:17.803Z,7.67
2018-10-16T02:36:17.765Z,7.66
2018-10-16T02:37:17.721Z,7.68
2018-10-16T02:38:17.654Z,7.69
2018-10-16T02:39:17.934Z,7.69
2018-10-16T02:40:17.716Z,7.69
2018-10-16T02:41:17.645Z,7.69
2018-10-16T02:42:17.714Z,7.67
2018-10-16T02:43:17.736Z,7.69
2018-10-16T02:44:17.779Z,7.68
2018-10-16T02:45:17.770Z,7.66
2018-10-16T02:46:17.711Z,7.63
2018-10-16T02:47:17.714Z,7.66
2018-10-16T02:48:17.756Z,7.68
2018-10-16T02:49:17.944Z,7.64
2018-10-16T02:50:17.680Z,7.67
2018-10-16T02:51:17.724Z,7.66
2018-10-16T02:52:17.742Z,7.62
2018-10-16T02:53:18.143Z,7.68
2018-10-16T02:54:17.767Z,7.67
2018-10-16T02:55:17.747Z,7.68
2018-10-16T02:56:17.755Z,7.63
2018-10-16T02:57:17.730Z,7.61
2018-10-16T02:58:17.912Z,7.67
2018-10-16T02:59:17.916Z,7.62
2018-10-16T03:00:17.781Z,7.64
2018-10-16T03:01:17.668Z,7.58
2018-10-16T03:02:17.879Z,7.64
2018-10-16T03:03:17.714Z,7.66
2018-10-16T03:04:17.677Z,7.62
2018-10-16T03:05:18.678Z,7.59
2018-10-16T03:06:17.747Z,7.62
2018-10-16T03:07:18.063Z,7.58
2018-10-16T03:08:17.718Z,7.59
2018-10-16T03:09:17.816Z,7.59
2018-10-16T03:10:17.761Z,7.65
2018-10-16T03:11:17.862Z,7.65
2018-10-16T03:12:17.821Z,7.61
2018-10-16T03:13:17.724Z,7.62
2018-10-16T03:14:17.756Z,7.58
2018-10-16T03:15:17.717Z,7.7
2018-10-16T03:16:17.875Z,7.71
2018-10-16T03:17:17.843Z,7.64
2018-10-16T03:18:17.799Z,7.62
2018-10-16T03:19:17.799Z,7.63
2018-10-16T03:20:18.201Z,7.71
2018-10-16T03:21:18.076Z,7.67
2018-10-16T03:22:18.123Z,7.67
2018-10-16T03:24:18.127Z,7.68
2018-10-16T03:25:17.727Z,7.65
2018-10-16T03:26:17.642Z,7.61
2018-10-16T03:27:17.652Z,7.61
2018-10-16T03:28:17.591Z,7.64
2018-10-16T03:29:17.700Z,7.64
2018-10-16T03:30:17.747Z,7.63
2018-10-16T03:31:17.573Z,7.63
2018-10-16T03:32:17.764Z,7.61
2018-10-16T03:33:17.704Z,7.63
2018-10-16T03:34:17.551Z,7.58
2018-10-16T03:35:17.510Z,7.6
2018-10-16T03:36:17.514Z,7.56
2018-10-16T03:37:17.650Z,7.58
2018-10-16T03:38:17.778Z,7.6
2018-10-16T03:39:17.534Z,7.57
2018-10-16T03:40:17.563Z,7.6
2018-10-16T03:41:17.579Z,7.57
2018-10-16T03:42:17.602Z,7.61
2018-10-16T03:43:17.542Z,7.61
2018-10-16T03:44:17.573Z,7.65
2018-10-16T03:45:17.527Z,7.67
2018-10-16T03:46:17.586Z,7.64
2018-10-16T03:47:17.517Z,7.62
2018-10-16T03:48:17.597Z,7.6
2018-10-16T03:49:17.719Z,7.64
2018-10-16T03:50:17.531Z,7.63
2018-10-16T03:51:17.547Z,7.62
2018-10-16T03:52:17.559Z,7.61
2018-10-16T03:53:18.100Z,7.59
2018-10-16T03:54:17.578Z,7.58
2018-10-16T03:55:17.515Z,7.63
2018-10-16T03:56:17.677Z,7.61
2018-10-16T03:57:18.120Z,7.67
2018-10-16T03:58:17.577Z,7.73
2018-10-16T03:59:17.520Z,7.74
2018-10-16T04:00:17.500Z,7.81
2018-10-16T04:01:17.527Z,7.81
2018-10-16T04:02:17.565Z,7.8
2018-10-16T04:03:17.654Z,7.8
2018-10-16T04:04:17.494Z,7.75
2018-10-16T04:05:17.488Z,7.77
2018-10-16T04:06:17.473Z,7.79
2018-10-16T04:07:17.706Z,7.81
2018-10-16T04:08:17.716Z,7.76
2018-10-16T04:09:17.495Z,7.76
2018-10-16T04:10:17.471Z,7.74
2018-10-16T04:11:17.503Z,7.72
2018-10-16T04:12:17.475Z,7.74
2018-10-16T04:13:17.537Z,7.7
2018-10-16T04:14:17.525Z,7.69
2018-10-16T04:15:17.608Z,7.73
2018-10-16T04:16:17.523Z,7.72
2018-10-16T04:17:17.579Z,7.71
2018-10-16T04:18:17.435Z,7.69
2018-10-16T04:19:17.560Z,7.71
2018-10-16T04:20:17.468Z,7.8
2018-10-16T04:21:17.823Z,7.82
2018-10-16T04:22:18.039Z,7.8
2018-10-16T04:23:17.529Z,7.8
2018-10-16T04:24:17.441Z,7.79
2018-10-16T04:25:17.575Z,7.76
2018-10-16T04:26:17.512Z,7.76
2018-10-16T04:27:17.496Z,7.73
2018-10-16T04:28:17.861Z,7.76
2018-10-16T04:29:18.115Z,7.74
2018-10-16T04:30:17.530Z,7.7
2018-10-16T04:31:17.522Z,7.69
2018-10-16T04:32:17.484Z,7.73
2018-10-16T04:33:17.511Z,7.74
2018-10-16T04:34:17.495Z,7.72
2018-10-16T04:35:17.475Z,7.72
2018-10-16T04:36:17.610Z,7.77
2018-10-16T04:37:17.581Z,7.77
2018-10-16T04:38:18.565Z,7.76
2018-10-16T04:39:17.574Z,7.73
2018-10-16T04:40:17.524Z,7.73
2018-10-16T04:41:17.722Z,7.7
2018-10-16T04:42:17.465Z,7.73
2018-10-16T04:43:17.483Z,7.72
2018-10-16T04:44:17.490Z,7.72
2018-10-16T04:46:17.465Z,7.71
2018-10-16T04:47:17.468Z,7.7
2018-10-16T04:48:17.466Z,7.69
2018-10-16T04:49:17.435Z,7.65
2018-10-16T04:50:17.530Z,7.69
2018-10-16T04:51:17.489Z,7.65
2018-10-16T04:52:17.464Z,7.68
2018-10-16T04:53:17.397Z,7.63
2018-10-16T04:54:17.750Z,7.65
2018-10-16T04:55:18.530Z,7.62
2018-10-16T04:56:17.501Z,7.66
2018-10-16T04:57:17.523Z,7.69
2018-10-16T04:58:17.381Z,7.68
2018-10-16T04:59:17.569Z,7.68
2018-10-16T05:00:17.388Z,7.67
2018-10-16T05:01:17.658Z,7.68
2018-10-16T05:02:17.439Z,7.67
2018-10-16T05:03:17.408Z,7.69
2018-10-16T05:04:18.747Z,7.64
2018-10-16T05:05:17.462Z,7.67
2018-10-16T05:07:17.432Z,7.62
2018-10-16T05:08:17.430Z,7.62
2018-10-16T05:09:17.462Z,7.62
2018-10-16T05:10:17.519Z,7.64
2018-10-16T05:11:17.732Z,7.65
2018-10-16T05:12:17.377Z,7.67
2018-10-16T05:13:18.536Z,7.66
2018-10-16T05:14:17.472Z,7.68
2018-10-16T05:15:17.708Z,7.73
2018-10-16T05:16:17.880Z,7.69
2018-10-16T05:17:17.575Z,7.72
2018-10-16T05:18:17.437Z,7.66
2018-10-16T05:19:19.015Z,7.65
2018-10-16T05:20:17.510Z,7.57
2018-10-16T05:21:17.394Z,7.56
2018-10-16T05:22:17.507Z,7.52
2018-10-16T05:23:17.784Z,7.43
2018-10-16T05:24:17.429Z,7.38
2018-10-16T05:25:17.452Z,7.36
2018-10-16T05:26:17.478Z,7.34
2018-10-16T05:27:17.587Z,7.28
2018-10-16T05:28:17.695Z,7.35
2018-10-16T05:29:17.463Z,7.32
2018-10-16T05:30:17.381Z,7.25
2018-10-16T05:31:18.918Z,7.32
2018-10-16T05:32:17.674Z,7.32
2018-10-16T05:33:41.779Z,7.31
2018-10-16T05:34:41.816Z,7.3
2018-10-16T05:35:41.870Z,7.29
2018-10-16T05:36:41.710Z,7.26
2018-10-16T05:37:41.755Z,7.27
2018-10-16T05:38:41.725Z,7.3
2018-10-16T05:39:42.124Z,7.31
2018-10-16T05:40:41.698Z,7.29
2018-10-16T05:41:41.750Z,7.29
2018-10-16T05:42:41.778Z,7.31
2018-10-16T05:43:41.739Z,7.37
2018-10-16T05:44:42.086Z,7.38
2018-10-16T05:45:41.734Z,7.4
2018-10-16T05:46:41.920Z,7.39
2018-10-16T05:47:41.877Z,7.35
2018-10-16T05:48:41.858Z,7.39
2018-10-16T05:49:41.759Z,7.38
2018-10-16T05:50:41.894Z,7.38
2018-10-16T05:51:42.136Z,7.39
2018-10-16T05:52:41.884Z,7.39
2018-10-16T05:53:41.734Z,7.4
2018-10-16T05:54:41.760Z,7.41
2018-10-16T05:55:41.913Z,7.4
2018-10-16T05:56:41.829Z,7.4
2018-10-16T05:57:41.919Z,7.42
2018-10-16T05:58:41.820Z,7.42
2018-10-16T05:59:41.905Z,7.42
2018-10-16T06:00:41.715Z,7.44
2018-10-16T06:01:41.773Z,7.45
2018-10-16T06:02:42.258Z,7.46
2018-10-16T06:03:41.734Z,7.47
2018-10-16T06:04:41.719Z,7.49
2018-10-16T06:05:42.388Z,7.46
2018-10-16T06:06:41.750Z,7.49
2018-10-16T06:07:41.747Z,7.5
2018-10-16T06:08:41.833Z,7.48
2018-10-16T06:09:41.703Z,7.52
2018-10-16T06:10:41.970Z,7.5
2018-10-16T06:11:41.894Z,7.49
2018-10-16T06:12:41.733Z,7.51
2018-10-16T06:13:41.790Z,7.48
2018-10-16T06:14:41.917Z,7.49
2018-10-16T06:15:41.669Z,7.48
2018-10-16T06:16:41.675Z,7.48
2018-10-16T06:17:41.656Z,7.49
2018-10-16T06:18:42.117Z,7.49
2018-10-16T06:19:41.796Z,7.51
2018-10-16T06:20:41.728Z,7.53
2018-10-16T06:21:41.847Z,7.5
2018-10-16T06:22:41.752Z,7.48
2018-10-16T06:23:41.697Z,7.46
2018-10-16T06:24:41.675Z,7.49
2018-10-16T06:25:41.709Z,7.48
2018-10-16T06:26:42.024Z,7.48
2018-10-16T06:27:42.266Z,7.52
2018-10-16T06:28:41.779Z,7.58
2018-10-16T06:29:41.814Z,7.62
2018-10-16T06:30:42.051Z,7.66
2018-10-16T06:31:41.683Z,7.62
2018-10-16T06:32:41.784Z,7.6
2018-10-16T06:33:41.883Z,7.58
2018-10-16T06:34:41.860Z,7.57
2018-10-16T06:35:41.760Z,7.59
2018-10-16T06:36:41.812Z,7.59
2018-10-16T06:37:42.026Z,7.61
2018-10-16T06:38:41.711Z,7.61
2018-10-16T06:39:41.705Z,7.6
2018-10-16T06:40:42.527Z,7.6
2018-10-16T06:41:42.387Z,7.57
2018-10-16T06:42:41.920Z,7.63
2018-10-16T06:43:42.100Z,7.63
2018-10-16T06:44:42.081Z,7.64
2018-10-16T06:45:41.696Z,7.63
2018-10-16T06:46:42.993Z,7.65
2018-10-16T06:47:42.846Z,7.71
2018-10-16T06:48:45.565Z,7.67
2018-10-16T06:49:41.647Z,7.67
2018-10-16T06:50:41.614Z,7.7
2018-10-16T06:51:41.609Z,7.75
2018-10-16T06:52:41.658Z,7.74
2018-10-16T06:53:41.678Z,7.69
2018-10-16T06:54:42.068Z,7.73
2018-10-16T06:55:41.597Z,7.78
2018-10-16T06:56:41.692Z,7.75
2018-10-16T06:57:41.661Z,7.76
2018-10-16T06:58:41.637Z,7.82
2018-10-16T06:59:41.664Z,7.81
2018-10-16T07:00:41.670Z,7.83
2018-10-16T07:01:41.638Z,7.82
2018-10-16T07:02:41.623Z,7.87
2018-10-16T07:03:41.608Z,7.89
2018-10-16T07:04:41.624Z,7.9
2018-10-16T07:05:41.648Z,7.89
2018-10-16T07:06:41.993Z,7.89
2018-10-16T07:07:41.655Z,7.92
2018-10-16T07:08:41.902Z,7.99
2018-10-16T07:09:41.902Z,7.95
2018-10-16T07:10:41.630Z,7.95
2018-10-16T07:11:41.707Z,7.95
2018-10-16T07:12:41.578Z,7.95
2018-10-16T07:13:41.592Z,8
2018-10-16T07:14:41.758Z,7.95
2018-10-16T07:15:41.722Z,7.97
2018-10-16T07:17:41.594Z,8.02
2018-10-16T07:18:41.642Z,8.05
2018-10-16T07:19:41.659Z,8.07
2018-10-16T07:20:41.765Z,8.04
2018-10-16T07:21:42.419Z,8.04
2018-10-16T07:22:41.641Z,8.05
2018-10-16T07:23:42.110Z,8.03
2018-10-16T07:24:41.649Z,8.06
2018-10-16T07:25:41.670Z,8.05
2018-10-16T07:26:41.647Z,8.14
2018-10-16T07:27:41.792Z,8.09
2018-10-16T07:28:41.640Z,8.11
2018-10-16T07:29:41.575Z,8.1
2018-10-16T07:30:41.749Z,8.13
2018-10-16T07:31:41.624Z,8.18
2018-10-16T07:32:41.863Z,8.14
2018-10-16T07:33:41.702Z,8.18
2018-10-16T07:34:41.652Z,8.16
2018-10-16T07:35:42.008Z,8.21
2018-10-16T07:36:41.959Z,8.25
2018-10-16T07:37:41.985Z,8.25
2018-10-16T07:38:41.977Z,8.23
2018-10-16T07:39:41.922Z,8.26
2018-10-16T07:40:41.584Z,8.29
2018-10-16T07:41:41.616Z,8.32
2018-10-16T07:42:41.697Z,8.32
2018-10-16T07:43:41.557Z,8.36
2018-10-16T07:44:41.708Z,8.36
2018-10-16T07:45:41.570Z,8.37
2018-10-16T07:46:41.535Z,8.4
2018-10-16T07:47:41.619Z,8.4
2018-10-16T07:48:43.063Z,8.44
2018-10-16T07:49:41.560Z,8.43
2018-10-16T07:50:41.618Z,8.44
2018-10-16T07:51:41.550Z,8.43
2018-10-16T07:52:41.556Z,8.46
2018-10-16T07:53:41.647Z,8.51
2018-10-16T07:54:41.612Z,8.51
2018-10-16T07:55:41.805Z,8.63
2018-10-16T07:56:41.618Z,8.68
2018-10-16T07:57:41.782Z,8.66
2018-10-16T07:58:41.610Z,8.66
2018-10-16T07:59:41.720Z,8.62
2018-10-16T08:00:41.732Z,8.63
2018-10-16T08:01:41.938Z,8.65
2018-10-16T08:02:41.671Z,8.66
2018-10-16T08:03:41.624Z,8.65
2018-10-16T08:04:41.551Z,8.69
2018-10-16T08:05:41.621Z,8.7
2018-10-16T08:06:41.798Z,8.7
2018-10-16T08:07:41.556Z,8.74
2018-10-16T08:08:41.695Z,8.79
2018-10-16T08:09:41.643Z,8.84
2018-10-16T08:11:41.728Z,8.84
2018-10-16T08:12:42.258Z,8.83
2018-10-16T08:13:41.735Z,8.88
2018-10-16T08:14:41.622Z,8.9
2018-10-16T08:15:41.647Z,8.96
2018-10-16T08:16:41.690Z,8.96
2018-10-16T08:17:41.576Z,8.98
2018-10-16T08:18:41.761Z,9.02
2018-10-16T08:19:41.607Z,9.04
2018-10-16T08:20:41.508Z,9.03
2018-10-16T08:21:42.005Z,9.05
2018-10-16T08:22:41.559Z,9.08
2018-10-16T08:23:41.559Z,9.07
2018-10-16T08:24:41.612Z,9.07
2018-10-16T08:25:41.526Z,9.05
2018-10-16T08:26:41.752Z,9.08
2018-10-16T08:27:41.557Z,9.1
2018-10-16T08:29:41.498Z,9.09
2018-10-16T08:30:42.193Z,9.14
2018-10-16T08:31:41.491Z,9.14
2018-10-16T08:32:41.504Z,9.12
2018-10-16T08:33:41.482Z,9.12
2018-10-16T08:34:41.558Z,9.02
2018-10-16T08:35:41.719Z,8.99
2018-10-16T08:36:42.294Z,9.02
2018-10-16T08:37:41.479Z,9.02
2018-10-16T08:38:41.460Z,9
2018-10-16T08:39:41.488Z,9.01
2018-10-16T08:40:41.502Z,9
2018-10-16T08:41:41.791Z,9.01
2018-10-16T08:42:41.913Z,9.07
2018-10-16T08:43:41.520Z,9.04
2018-10-16T08:44:42.176Z,9.05
2018-10-16T08:45:41.655Z,9.05
2018-10-16T08:46:41.612Z,9.08
2018-10-16T08:47:42.587Z,9.06
2018-10-16T08:48:41.774Z,9.03
2018-10-16T08:49:41.617Z,9
2018-10-16T08:50:41.514Z,8.95
2018-10-16T08:51:41.493Z,8.98
2018-10-16T08:52:41.476Z,8.95
2018-10-16T08:53:41.699Z,8.98
2018-10-16T08:54:41.665Z,8.97
2018-10-16T08:55:41.611Z,8.98
2018-10-16T08:56:41.532Z,8.88
2018-10-16T08:57:41.514Z,8.93
2018-10-16T08:58:41.521Z,8.98
2018-10-16T08:59:41.492Z,8.99
2018-10-16T09:00:41.552Z,9.03
2018-10-16T09:01:41.564Z,9.01
2018-10-16T09:02:41.624Z,9.03
2018-10-16T09:03:41.505Z,8.91
2018-10-16T09:04:41.852Z,8.99
2018-10-16T09:05:41.487Z,9.03
2018-10-16T09:06:41.976Z,9.03
2018-10-16T09:07:41.473Z,8.89
2018-10-16T09:08:41.703Z,8.89
2018-10-16T09:09:41.537Z,8.92
2018-10-16T09:10:41.719Z,8.93
2018-10-16T09:11:41.586Z,8.89
2018-10-16T09:12:41.449Z,8.9
2018-10-16T09:13:41.483Z,8.87
2018-10-16T09:14:41.509Z,8.93
2018-10-16T09:15:41.496Z,8.87
2018-10-16T09:16:41.470Z,8.89
2018-10-16T09:17:41.533Z,8.94
2018-10-16T09:18:41.540Z,8.96
2018-10-16T09:19:41.843Z,8.92
2018-10-16T09:20:41.519Z,8.92
2018-10-16T09:21:41.448Z,8.96
2018-10-16T09:22:41.417Z,9.01
2018-10-16T09:23:41.463Z,9.07
2018-10-16T09:24:42.313Z,9.07
2018-10-16T09:25:41.906Z,9.02
2018-10-16T09:26:41.473Z,8.94
2018-10-16T09:27:41.615Z,8.9
2018-10-16T09:28:41.396Z,8.88
2018-10-16T09:29:41.414Z,8.9
2018-10-16T09:30:42.067Z,8.86
2018-10-16T09:31:41.436Z,8.8
2018-10-16T09:32:41.440Z,8.79
2018-10-16T09:33:41.753Z,8.82
2018-10-16T09:34:41.401Z,8.92
2018-10-16T09:35:41.409Z,8.9
2018-10-16T09:36:41.466Z,8.88
2018-10-16T09:37:42.989Z,8.87
2018-10-16T09:38:41.704Z,8.93
2018-10-16T09:39:41.468Z,9
2018-10-16T09:40:41.469Z,8.98
2018-10-16T09:41:41.465Z,8.94
2018-10-16T09:42:41.610Z,8.89
2018-10-16T09:43:41.593Z,9
2018-10-16T09:44:41.614Z,9.12
2018-10-16T09:45:41.637Z,9.08
2018-10-16T09:46:41.633Z,9.04
2018-10-16T09:47:42.321Z,9.03
2018-10-16T09:48:41.797Z,9.12
2018-10-16T09:49:42.233Z,9.11
2018-10-16T09:50:41.548Z,9.08
2018-10-16T09:51:41.469Z,9.13
2018-10-16T09:52:41.855Z,8.99
2018-10-16T09:53:41.409Z,8.86
2018-10-16T09:54:41.387Z,8.86
2018-10-16T09:55:41.500Z,8.89
2018-10-16T09:56:41.513Z,8.79
2018-10-16T09:57:41.802Z,8.78
2018-10-16T09:58:41.387Z,8.77
2018-10-16T09:59:41.507Z,8.93
2018-10-16T10:00:41.602Z,8.9
2018-10-16T10:01:41.525Z,8.9
2018-10-16T10:02:41.538Z,8.84
2018-10-16T10:03:41.535Z,8.9
2018-10-16T10:04:41.537Z,9.05
2018-10-16T10:05:41.444Z,9.14
2018-10-16T10:06:41.458Z,9.16
2018-10-16T10:07:41.471Z,9.15
2018-10-16T10:08:41.567Z,9.08
2018-10-16T10:09:41.472Z,9.05
2018-10-16T10:10:41.368Z,8.98
2018-10-16T10:11:41.426Z,8.9
2018-10-16T10:12:41.593Z,9.01
2018-10-16T10:13:41.361Z,9.13
2018-10-16T10:14:41.555Z,9.07
2018-10-16T10:15:41.409Z,8.93
2018-10-16T10:16:41.647Z,8.8
2018-10-16T10:17:41.467Z,9.01
2018-10-16T10:18:41.519Z,8.9
2018-10-16T10:19:41.681Z,9.02
2018-10-16T10:20:41.488Z,8.95
2018-10-16T10:21:41.439Z,9.01
2018-10-16T10:22:41.378Z,8.95
2018-10-16T10:23:41.372Z,8.93
2018-10-16T10:24:41.343Z,8.94
2018-10-16T10:25:41.364Z,9.01
2018-10-16T10:26:41.372Z,8.97
2018-10-16T10:27:41.529Z,8.86
2018-10-16T10:28:41.422Z,8.86
2018-10-16T10:29:42.185Z,9.04
2018-10-16T10:30:41.726Z,8.82
2018-10-16T10:31:41.412Z,8.74
2018-10-16T10:32:41.663Z,8.73
2018-10-16T10:33:41.853Z,8.64
2018-10-16T10:34:41.373Z,8.68
2018-10-16T10:35:41.660Z,8.63
2018-10-16T10:36:41.525Z,8.66
2018-10-16T10:37:41.393Z,8.62
2018-10-16T10:38:41.411Z,8.77
2018-10-16T10:39:41.386Z,8.86
2018-10-16T10:40:41.473Z,8.86
2018-10-16T10:41:41.381Z,8.81
2018-10-16T10:42:41.489Z,8.93
2018-10-16T10:43:41.335Z,8.85
2018-10-16T10:44:41.442Z,8.97
2018-10-16T10:45:41.514Z,8.77
2018-10-16T10:46:41.324Z,8.86
2018-10-16T10:47:41.773Z,8.72
2018-10-16T10:48:41.365Z,8.56
2018-10-16T10:49:41.447Z,8.6
2018-10-16T10:50:44.080Z,8.59
2018-10-16T10:51:43.105Z,8.64
2018-10-16T10:52:41.463Z,8.67
2018-10-16T10:53:41.324Z,8.66
2018-10-16T10:54:41.325Z,8.68
2018-10-16T10:55:41.361Z,8.67
2018-10-16T10:56:42.092Z,8.68
2018-10-16T10:57:41.540Z,8.7
2018-10-16T10:58:41.513Z,8.73
2018-10-16T10:59:41.376Z,8.82
2018-10-16T11:00:41.384Z,8.74
2018-10-16T11:01:41.519Z,8.68
2018-10-16T11:02:41.339Z,8.74
2018-10-16T11:03:43.061Z,8.78
2018-10-16T11:04:41.447Z,8.83
2018-10-16T11:05:41.462Z,8.67
2018-10-16T11:06:41.300Z,8.64
2018-10-16T11:07:41.842Z,8.68
2018-10-16T11:08:41.501Z,8.62
2018-10-16T11:09:41.330Z,8.58
2018-10-16T11:10:41.431Z,8.6
2018-10-16T11:11:40.920Z,8.68
2018-10-16T11:12:41.494Z,8.74
2018-10-16T11:13:41.271Z,8.56
2018-10-16T11:14:41.657Z,8.66
2018-10-16T11:15:41.571Z,8.66
2018-10-16T11:16:41.292Z,8.6
2018-10-16T11:17:41.396Z,8.73
2018-10-16T11:18:41.378Z,8.82
2018-10-16T11:19:41.380Z,8.71
2018-10-16T11:20:41.451Z,8.63
2018-10-16T11:21:41.327Z,8.65
2018-10-16T11:22:41.437Z,8.65
2018-10-16T11:23:41.356Z,8.62
2018-10-16T11:24:41.491Z,8.71
2018-10-16T11:25:41.340Z,8.71
2018-10-16T11:26:41.433Z,8.85
2018-10-16T11:27:41.547Z,8.81
2018-10-16T11:28:41.343Z,8.8
2018-10-16T11:29:41.497Z,8.84
2018-10-16T11:30:41.590Z,8.76
2018-10-16T11:31:41.344Z,8.71
2018-10-16T11:32:41.315Z,8.7
2018-10-16T11:33:41.304Z,8.72
2018-10-16T11:34:41.389Z,8.88
2018-10-16T11:35:41.359Z,8.85
2018-10-16T11:36:41.664Z,8.91
2018-10-16T11:37:41.788Z,8.83
2018-10-16T11:38:41.311Z,8.83
2018-10-16T11:39:41.264Z,8.82
2018-10-16T11:40:41.257Z,8.92
2018-10-16T11:41:41.320Z,8.91
2018-10-16T11:42:41.633Z,8.93
2018-10-16T11:43:41.239Z,8.85
2018-10-16T11:44:41.564Z,8.83
2018-10-16T11:45:41.922Z,8.85
2018-10-16T11:46:41.487Z,8.92
2018-10-16T11:47:41.359Z,8.9
2018-10-16T11:48:41.382Z,8.96
2018-10-16T11:49:41.243Z,8.95
2018-10-16T11:50:41.596Z,8.94
2018-10-16T11:51:41.307Z,9.03
2018-10-16T11:52:41.609Z,9.11
2018-10-16T11:53:41.291Z,9.11
2018-10-16T11:54:41.741Z,9.19
2018-10-16T11:55:41.284Z,9.08
2018-10-16T11:56:41.358Z,9.07
2018-10-16T11:57:41.513Z,9.2
2018-10-16T11:58:41.293Z,9.01
2018-10-16T11:59:41.268Z,8.99
2018-10-16T12:00:41.436Z,9.09
2018-10-16T12:01:41.239Z,9.08
2018-10-16T12:02:41.770Z,9.08
2018-10-16T12:03:41.263Z,9.09
2018-10-16T12:04:41.363Z,9.06
2018-10-16T12:05:41.316Z,9.11
2018-10-16T12:06:41.316Z,9.17
2018-10-16T12:07:41.301Z,9.18
2018-10-16T12:08:41.641Z,9.08
2018-10-16T12:09:41.511Z,9.08
2018-10-16T12:10:41.693Z,9.06
2018-10-16T12:11:41.293Z,9.06
2018-10-16T12:12:41.274Z,9.1
2018-10-16T12:13:41.292Z,9.14
2018-10-16T12:14:41.482Z,9.11
2018-10-16T12:15:41.270Z,9.03
2018-10-16T12:16:42.061Z,9.05
2018-10-16T12:17:41.426Z,9.08
2018-10-16T12:18:41.267Z,9.21
2018-10-16T12:19:42.437Z,9.13
2018-10-16T12:20:41.358Z,9.08
2018-10-16T12:21:41.224Z,9.05
2018-10-16T12:22:41.378Z,9.1
2018-10-16T12:23:42.586Z,9.08
2018-10-16T12:24:41.393Z,9.25
2018-10-16T12:25:41.260Z,9.21
2018-10-16T12:26:41.262Z,9.09
2018-10-16T12:27:41.467Z,9.14
2018-10-16T12:28:41.210Z,9.12
2018-10-16T12:29:41.309Z,9.1
2018-10-16T12:30:41.441Z,9.16
2018-10-16T12:31:41.215Z,9.25
2018-10-16T12:32:41.398Z,9.14
2018-10-16T12:33:41.327Z,9.18
2018-10-16T12:34:41.335Z,9.21
2018-10-16T12:35:41.437Z,9.27
2018-10-16T12:36:41.239Z,9.2
2018-10-16T12:37:41.336Z,9.24
2018-10-16T12:38:41.369Z,9.26
2018-10-16T12:39:41.800Z,9.28
2018-10-16T12:40:41.408Z,9.3
2018-10-16T12:41:41.359Z,9.35
2018-10-16T12:42:41.651Z,9.34
2018-10-16T12:43:43.437Z,9.34
2018-10-16T12:44:41.259Z,9.4
2018-10-16T12:45:42.477Z,9.43
2018-10-16T12:46:41.214Z,9.35
2018-10-16T12:47:41.216Z,9.37
2018-10-16T12:48:41.331Z,9.36
2018-10-16T12:49:41.307Z,9.41
2018-10-16T12:50:41.361Z,9.45
2018-10-16T12:51:41.194Z,9.42
2018-10-16T12:52:41.319Z,9.3
2018-10-16T12:53:41.249Z,9.34
2018-10-16T12:54:41.211Z,9.44
2018-10-16T12:55:41.390Z,9.42
2018-10-16T12:56:41.715Z,9.47
2018-10-16T12:57:41.184Z,9.42
2018-10-16T12:58:41.203Z,9.46
2018-10-16T12:59:41.180Z,9.47
2018-10-16T13:00:41.351Z,9.48
2018-10-16T13:01:41.193Z,9.6
2018-10-16T13:02:41.229Z,9.48
2018-10-16T13:03:42.039Z,9.44
2018-10-16T13:04:41.467Z,9.4
2018-10-16T13:05:41.284Z,9.41
2018-10-16T13:06:41.869Z,9.5
2018-10-16T13:07:41.179Z,9.55
2018-10-16T13:08:41.359Z,9.5
2018-10-16T13:09:41.332Z,9.54
2018-10-16T13:10:41.372Z,9.47
2018-10-16T13:11:41.483Z,9.41
2018-10-16T13:12:41.236Z,9.36
2018-10-16T13:13:41.343Z,9.39
2018-10-16T13:14:41.531Z,9.45
2018-10-16T13:15:41.200Z,9.51
2018-10-16T13:16:41.701Z,9.46
2018-10-16T13:17:41.159Z,9.42
2018-10-16T13:18:41.226Z,9.45
2018-10-16T13:19:41.413Z,9.59
2018-10-16T13:20:41.243Z,9.51
2018-10-16T13:21:41.371Z,9.53
2018-10-16T13:22:41.267Z,9.53
2018-10-16T13:23:42.245Z,9.48
2018-10-16T13:24:41.645Z,9.45
2018-10-16T13:25:41.226Z,9.48
2018-10-16T13:26:41.591Z,9.51
2018-10-16T13:27:41.336Z,9.57